首页
METAR-TAF:

METAR-TAF

机场 :

瓜拉納穆國際機場

棉蘭, 北苏门答腊省, 印度尼西亚

纬度: 03-34N, 经度: 098-41E, 海拔: 25米

当前天气观测

该预报发布于55分钟前的03:00 UTC
风速2节,风向西转西南
温度 29°C
湿度 89%
气压 1011 hPa
能見度: 6000
散云层高于1800英尺

METAR: WIMM 140300Z 24002KT 6000 SCT018 29/27 Q1011 NOSIG

时间: 10:55 (03:55 UTC)

预报

该预报发布于4小时和55分钟前的23:00 UTC
预报有效从14日的 00点(UTC)到 15日的 00点(UTC)
风速5节,风向多变
能見度: 5000
散云层高于1800英尺
成为
从 14日的 02点(UTC)到 14日的 04点(UTC)
风速8节,风向东北
能见度10公里或以上
成为
从 14日的 11点(UTC)到 14日的 13点(UTC)
风速5节,风向多变
能見度: 5000
霾,

TAF: WIMM 132300Z 1400/1500 VRB05KT 5000 HZ SCT018 BECMG 1402/1404 05008KT 9999 BECMG 1411/1413 VRB05KT 5000 HZ

超过4000个机场的气象观测和天气预报(METAR&TAF报告)。

可查询的气象台以黄色和红色小点在地图上表示。

将鼠标移到小点上方,可查看气象台名称。

然后点击查看天气观测和预报。

如需切换地图:点击带黑十字的绿色按钮放大地图;点击带横线的绿色按钮缩小地图;或者点击绿色箭头查看邻近地区的地图。


METAR-TAF: